Time;durP1;ratioP1;P1;durP2;ratioP2;P2;SDS_P1;SDS_P2;PMS_P1;PMS_P2;Temp;Humidity;BMP_temperature;BMP_pressure;BME280_temperature;BME280_humidity;BME280_pressure;Samples;Min_cycle;Max_cycle;Signal;HPM_P1;HPM_P2
2023/07/25 20:58:39;;;;;;;3.95;1.60;;;;;;;;;;6239878;22;20215;-90
2023/07/25 21:01:45;;;;;;;3.97;1.85;;;;;;;;;;6251881;23;20237;-90
2023/07/25 21:04:51;;;;;;;7.82;2.00;;;;;;;;;;6251264;22;20154;-90
2023/07/25 21:07:58;;;;;;;4.32;1.98;;;;;;;;;;6252084;22;20166;-91
2023/07/25 21:11:07;;;;;;;4.82;2.17;;;;;;;;;;6251169;22;20230;-89
2023/07/25 21:14:15;;;;;;;4.05;2.10;;;;;;;;;;6250284;22;20264;-91
2023/07/25 21:17:20;;;;;;;6.10;2.30;;;;;;;;;;6249955;23;20163;-90
2023/07/25 21:20:26;;;;;;;4.13;2.42;;;;;;;;;;6251244;23;20154;-91
2023/07/25 21:23:32;;;;;;;6.28;2.60;;;;;;;;;;6251944;23;20174;-92
2023/07/25 21:26:37;;;;;;;5.55;2.25;;;;;;;;;;6250661;23;20219;-90
2023/07/25 21:29:46;;;;;;;5.60;2.40;;;;;;;;;;6252735;23;20241;-92
2023/07/25 21:32:52;;;;;;;3.83;2.08;;;;;;;;;;6252678;22;20219;-91
2023/07/25 21:36:09;;;;;;;4.32;1.88;;;;;;;;;;6249392;23;20154;-92
2023/07/25 21:42:40;;;;;;;2.70;1.52;;;;;;;;;;6250949;23;20198;-93
2023/07/25 21:45:48;;;;;;;4.47;2.33;;;;;;;;;;6249485;23;20166;-93
2023/07/25 21:48:53;;;;;;;3.95;1.73;;;;;;;;;;6246838;22;20166;-92
2023/07/25 21:52:02;;;;;;;4.65;2.00;;;;;;;;;;6245194;23;20171;-90
2023/07/25 21:55:15;;;;;;;6.32;2.15;;;;;;;;;;6247333;23;20155;-91
2023/07/25 21:58:22;;;;;;;6.72;2.22;;;;;;;;;;6231708;23;20197;-93
2023/07/25 22:01:31;;;;;;;6.40;2.90;;;;;;;;;;6250550;23;20205;-91
2023/07/25 22:04:37;;;;;;;10.40;2.53;;;;;;;;;;6245633;23;20202;-91
2023/07/25 22:07:42;;;;;;;2.67;1.90;;;;;;;;;;6245863;23;20708;-93
2023/07/25 22:10:48;;;;;;;5.75;2.88;;;;;;;;;;6246638;22;20214;-92
2023/07/25 22:13:53;;;;;;;9.77;4.05;;;;;;;;;;6246594;22;20162;-92
2023/07/25 22:17:02;;;;;;;6.00;2.45;;;;;;;;;;6247178;23;20235;-93
2023/07/25 22:20:08;;;;;;;7.32;3.58;;;;;;;;;;6246284;23;20257;-88
2023/07/25 22:23:13;;;;;;;10.27;2.75;;;;;;;;;;6244387;22;20178;-91
2023/07/25 22:26:19;;;;;;;4.60;2.78;;;;;;;;;;6247522;23;20166;-93
2023/07/25 22:29:24;;;;;;;5.03;2.03;;;;;;;;;;6245940;23;20163;-93
2023/07/25 22:32:31;;;;;;;3.25;1.75;;;;;;;;;;6246741;22;20234;-94
2023/07/25 22:35:37;;;;;;;6.35;1.90;;;;;;;;;;6242976;23;20178;-92
2023/07/25 22:42:57;;;;;;;7.30;2.20;;;;;;;;;;6260452;23;20535;-91
2023/07/25 22:46:03;;;;;;;6.30;2.80;;;;;;;;;;6242565;23;20167;-92
2023/07/25 22:49:10;;;;;;;6.22;3.67;;;;;;;;;;6240602;23;20171;-91
2023/07/25 22:52:42;;;;;;;9.10;2.80;;;;;;;;;;6242391;23;20169;-92
2023/07/25 22:55:48;;;;;;;5.47;1.92;;;;;;;;;;6242937;23;20162;-93
2023/07/25 22:58:53;;;;;;;7.68;1.80;;;;;;;;;;6248918;23;20202;-92
2023/07/25 23:01:58;;;;;;;4.68;1.85;;;;;;;;;;6260879;23;20490;-92
2023/07/25 23:05:05;;;;;;;2.38;1.52;;;;;;;;;;6260952;23;20165;-92
2023/07/25 23:08:10;;;;;;;3.95;1.98;;;;;;;;;;6259313;23;20586;-90
2023/07/25 23:11:15;;;;;;;4.75;1.80;;;;;;;;;;6259600;22;20201;-93
2023/07/25 23:14:20;;;;;;;4.18;2.20;;;;;;;;;;6259801;22;20265;-91
2023/07/25 23:17:26;;;;;;;5.30;2.10;;;;;;;;;;6258351;23;20213;-89
2023/07/25 23:20:32;;;;;;;4.53;2.22;;;;;;;;;;6260472;22;20202;-92
2023/07/25 23:23:37;;;;;;;5.07;2.20;;;;;;;;;;6260078;22;20150;-91
2023/07/25 23:26:42;;;;;;;7.22;3.03;;;;;;;;;;6260953;23;20166;-91
2023/07/25 23:29:47;;;;;;;3.53;2.03;;;;;;;;;;6261168;22;20190;-90
2023/07/25 23:32:52;;;;;;;6.18;2.72;;;;;;;;;;6258477;22;20254;-90
2023/07/25 23:35:59;;;;;;;4.57;2.17;;;;;;;;;;6256530;23;20243;-91
2023/07/25 23:39:05;;;;;;;2.38;1.70;;;;;;;;;;6259494;23;20174;-92
2023/07/25 23:42:11;;;;;;;4.63;1.90;;;;;;;;;;6260024;22;20167;-92
2023/07/25 23:45:21;;;;;;;4.18;2.40;;;;;;;;;;6260701;22;20163;-91
2023/07/25 23:48:26;;;;;;;5.43;2.05;;;;;;;;;;6258332;22;20167;-90
2023/07/25 23:52:10;;;;;;;5.50;2.20;;;;;;;;;;6259224;22;20193;-90
2023/07/25 23:55:17;;;;;;;4.88;2.70;;;;;;;;;;6258639;22;20162;-91
2023/07/25 23:58:23;;;;;;;4.90;2.15;;;;;;;;;;6258313;22;20190;-91
